Impacts METAR Board INFO
IDs:

KDCA - Washington/National, VA, US

Updated at: 0333 UTC 13 Dec 2017
Potential Impact None Slight Moderate High
Time12/15Z 12/16Z 12/17Z 12/18Z 12/19Z 12/20Z 12/21Z 12/22Z 12/23Z 13/00Z 13/01Z 13/02Z 13/03Z
VIS10 10 10 10 10 10 10 10 10 10 10 10 10
CIG140 75 70 85 70 90 90 100 90 110 60 60 250
CoverOVCOVCOVCOVCOVCOVCOVCOVCOVCOVCOVCBKNBKN
FltCatVFRVFRVFRVFRVFRVFRVFRVFRVFRVFRVFRVFRVFR
WX--------------------------
WDir22002300320330300310310310320310310
WSpd4 5 6 5 16 17 12 15 20 13 20 21 23
WGst-- -- -- -- 22 22 20 28 26 24 34 28 29
Raw hourly METARs
KDCA 121452Z 22004KT 10SM FEW080 BKN140 OVC230 07/00 A2960 RMK AO2 SLP024 T00670000 58004
KDCA 121552Z VRB05KT 10SM BKN075 OVC140 07/00 A2958 RMK AO2 SLP018 T00720000
KDCA 121652Z 23006KT 10SM OVC070 08/01 A2956 RMK AO2 SLP010 T00780006
KDCA 121752Z VRB05KT 10SM OVC085 09/01 A2953 RMK AO2 SLP001 T00890006 10089 20056 58023
KDCA 121852Z 32016G22KT 10SM FEW055 BKN070 OVC085 09/M02 A2952 RMK AO2 SLP997 T00891017
KDCA 121952Z 33017G22KT 10SM FEW050 FEW075 BKN090 OVC250 09/M01 A2953 RMK AO2 PK WND 32033/1926 SLP001 T00891011
KDCA 122052Z 30012G20KT 10SM OVC090 07/M03 A2956 RMK AO2 SLP008 T00721033 53007
KDCA 122152Z 31015G28KT 10SM SCT046 OVC100 05/M06 A2959 RMK AO2 PK WND 32032/2140 SLP018 T00501061
KDCA 122252Z 31020G26KT 10SM SCT050 BKN090 OVC110 04/M08 A2963 RMK AO2 PK WND 32028/2222 SLP033 T00441078
KDCA 122352Z 31013G24KT 10SM FEW050 OVC110 02/M10 A2966 RMK AO2 PK WND 28033/2253 SLP044 T00221100 10094 20022 53036
KDCA 130052Z 32020G34KT 10SM SCT044 OVC060 01/M10 A2971 RMK AO2 PK WND 32034/0022 SLP058 T00061100
KDCA 130152Z 31021G28KT 10SM FEW044 BKN060 M02/M13 A2972 RMK AO2 PK WND 31028/0151 SLP064 T10171128
KDCA 130252Z 31023G29KT 10SM SCT050 BKN250 M03/M14 A2973 RMK AO2 PK WND 32032/0240 SLP067 T10281139 51024